Time;durP1;ratioP1;P1;durP2;ratioP2;P2;SDS_P1;SDS_P2;PMS_P1;PMS_P2;Temp;Humidity;BMP_temperature;BMP_pressure;BME280_temperature;BME280_humidity;BME280_pressure;Samples;Min_cycle;Max_cycle;Signal;HPM_P1;HPM_P2
2022/09/07 00:01:16;;;;;;;2.30;1.00;;;;;;;17.85;43.99;99342.34;5150603;27;20023;-68
2022/09/07 00:03:41;;;;;;;1.85;1.20;;;;;;;17.83;44.13;99337.16;5151183;27;20023;-68
2022/09/07 00:06:08;;;;;;;2.20;1.40;;;;;;;17.82;44.16;99332.00;5150966;27;20035;-67
2022/09/07 00:08:34;;;;;;;1.58;1.05;;;;;;;17.82;44.09;99330.13;5132835;27;20059;-66
2022/09/07 00:11:03;;;;;;;1.30;0.90;;;;;;;17.82;44.05;99330.13;5150794;27;20319;-66
2022/09/07 00:13:32;;;;;;;1.98;1.15;;;;;;;17.83;44.00;99333.66;5130272;27;20023;-64
2022/09/07 00:16:04;;;;;;;1.42;0.90;;;;;;;17.82;44.23;99326.66;5133775;27;20026;-65
2022/09/07 00:18:30;;;;;;;;;;;;;;;17.75;44.18;99328.31;5151227;27;20027;-66
2022/09/07 00:21:00;;;;;;;1.40;0.90;;;;;;;17.77;44.14;99323.63;5150850;27;19914;-67
2022/09/07 00:23:27;;;;;;;1.38;1.27;;;;;;;17.77;44.01;99324.50;5150538;27;20027;-67
2022/09/07 00:25:52;;;;;;;1.85;0.82;;;;;;;17.76;44.12;99314.78;5150281;27;20051;-68
2022/09/07 00:28:18;;;;;;;1.33;0.90;;;;;;;17.77;43.92;99323.63;5150736;27;20132;-66
2022/09/07 00:30:43;;;;;;;1.08;0.90;;;;;;;17.79;43.77;99321.63;5150577;27;20023;-67
2022/09/07 00:33:09;;;;;;;1.70;1.00;;;;;;;17.78;43.89;99319.97;5150556;27;20054;-66
2022/09/07 00:35:41;;;;;;;1.92;1.38;;;;;;;17.77;43.95;99308.44;5150458;27;20162;-64
2022/09/07 00:38:06;;;;;;;2.42;1.08;;;;;;;17.79;43.89;99316.28;5150584;27;20016;-66
2022/09/07 00:40:32;;;;;;;1.67;1.10;;;;;;;17.78;43.89;99315.47;5150477;27;20284;-67
2022/09/07 00:42:57;;;;;;;2.22;1.20;;;;;;;17.77;43.88;99311.09;5150239;27;20232;-67
2022/09/07 00:45:23;;;;;;;2.80;1.23;;;;;;;17.78;44.01;99309.25;5150074;27;20098;-65
2022/09/07 00:48:16;;;;;;;5.22;1.30;;;;;;;17.79;44.22;99308.25;5146522;27;20019;-67
2022/09/07 00:50:59;;;;;;;2.45;1.02;;;;;;;17.78;44.28;99302.06;5150321;27;20027;-65
2022/09/07 00:53:34;;;;;;;1.98;0.85;;;;;;;17.79;44.18;99311.75;5150324;27;20263;-66
2022/09/07 00:56:01;;;;;;;3.50;1.13;;;;;;;17.77;44.30;99302.22;5150147;27;20238;-66
2022/09/07 00:58:29;;;;;;;1.35;0.95;;;;;;;17.77;44.42;99296.88;5150230;27;20072;-65
2022/09/07 01:00:55;;;;;;;2.70;1.30;;;;;;;17.78;44.43;99298.56;5150097;27;20015;-67
2022/09/07 01:03:29;;;;;;;3.63;1.40;;;;;;;17.77;44.45;99297.72;5150055;27;20337;-68
2022/09/07 01:06:01;;;;;;;1.58;1.05;;;;;;;17.76;44.33;99296.06;5149769;27;20030;-66
2022/09/07 01:08:27;;;;;;;;;;;;;;;17.71;44.49;99292.25;5150285;27;20047;-67
2022/09/07 01:10:54;;;;;;;1.73;1.02;;;;;;;17.72;44.45;99292.06;5148819;27;20121;-67
2022/09/07 01:13:19;;;;;;;1.85;1.35;;;;;;;17.75;44.30;99290.88;5149883;27;20072;-64
2022/09/07 01:15:52;;;;;;;1.98;1.08;;;;;;;17.74;44.11;99297.22;5149880;27;20047;-65
2022/09/07 01:18:45;;;;;;;2.00;0.90;;;;;;;17.75;44.19;99290.88;5149446;27;20027;-63
2022/09/07 01:21:37;;;;;;;1.27;0.90;;;;;;;17.72;44.35;99286.69;5117915;27;20062;-64
2022/09/07 01:24:24;;;;;;;1.75;0.82;;;;;;;17.71;44.39;99282.34;5149820;27;20036;-65
2022/09/07 01:26:52;;;;;;;1.70;1.00;;;;;;;17.72;44.31;99299.25;5149498;27;20129;-67
2022/09/07 01:29:33;;;;;;;2.85;0.80;;;;;;;17.72;44.31;99283.22;5149721;27;20031;-65
2022/09/07 01:32:21;;;;;;;3.55;1.10;;;;;;;17.71;44.22;99285.03;5149140;27;20027;-68
2022/09/07 01:34:51;;;;;;;1.10;0.80;;;;;;;17.69;43.98;99274.50;5148683;27;20031;-67
2022/09/07 01:37:55;;;;;;;1.60;1.00;;;;;;;17.68;44.14;99282.69;5149344;27;20109;-66
2022/09/07 01:40:35;;;;;;;1.65;1.13;;;;;;;17.67;43.96;99276.53;5149296;27;20019;-66
2022/09/07 01:43:05;;;;;;;1.33;0.90;;;;;;;17.69;44.01;99276.34;5149054;27;20106;-68
2022/09/07 01:45:35;;;;;;;1.48;1.00;;;;;;;17.67;44.08;99275.69;5149166;27;20108;-67
2022/09/07 01:48:05;;;;;;;1.45;0.77;;;;;;;17.67;44.10;99275.69;5149320;27;20042;-68
2022/09/07 01:50:41;;;;;;;1.58;1.02;;;;;;;17.66;44.16;99272.19;5148793;27;20046;-67
2022/09/07 01:53:09;;;;;;;2.13;0.90;;;;;;;17.67;44.23;99263.16;5149136;27;20103;-68
2022/09/07 01:55:53;;;;;;;1.90;0.73;;;;;;;17.65;43.97;99259.81;5148697;27;20057;-67
2022/09/07 01:58:26;;;;;;;1.17;0.80;;;;;;;17.67;44.02;99264.97;5148659;27;20043;-67
2022/09/07 02:01:00;;;;;;;1.45;1.00;;;;;;;17.66;43.95;99260.63;5149032;27;20033;-68
2022/09/07 02:03:34;;;;;;;1.20;0.80;;;;;;;17.64;44.15;99260.81;5148857;27;20031;-66
2022/09/07 02:06:13;;;;;;;1.33;0.77;;;;;;;17.64;44.02;99260.81;5148760;27;20178;-66
2022/09/07 02:08:48;;;;;;;1.83;0.73;;;;;;;17.63;43.79;99261.00;5148643;27;20088;-66
2022/09/07 02:11:20;;;;;;;1.33;0.82;;;;;;;17.62;44.09;99257.47;5148828;27;20080;-67
2022/09/07 02:14:03;;;;;;;0.90;0.80;;;;;;;17.61;43.97;99266.50;5148829;27;20063;-65
2022/09/07 02:16:31;;;;;;;1.52;1.00;;;;;;;17.61;44.13;99261.16;5148590;27;20271;-65
2022/09/07 02:19:04;;;;;;;1.52;1.15;;;;;;;17.61;43.98;99258.47;5148684;27;20082;-66
2022/09/07 02:21:37;;;;;;;1.27;0.80;;;;;;;17.60;44.14;99246.09;5148533;27;20201;-65
2022/09/07 02:24:20;;;;;;;2.05;1.30;;;;;;;17.62;43.88;99267.34;5148050;27;20245;-67
2022/09/07 02:26:48;;;;;;;2.20;0.88;;;;;;;17.61;44.00;99250.44;5133400;27;20027;-66
2022/09/07 02:29:14;;;;;;;1.50;0.90;;;;;;;17.59;43.77;99259.66;5148481;27;20148;-66
2022/09/07 02:31:40;;;;;;;3.42;1.00;;;;;;;17.59;43.91;99257.81;5148436;27;20039;-67
2022/09/07 02:34:06;;;;;;;1.58;1.10;;;;;;;17.60;43.93;99258.66;5148039;27;20050;-66
2022/09/07 02:36:40;;;;;;;1.77;0.90;;;;;;;17.60;43.92;99256.81;5148107;27;20216;-66
2022/09/07 02:39:06;;;;;;;1.25;0.98;;;;;;;17.59;43.85;99259.66;5148385;27;20023;-67
2022/09/07 02:41:35;;;;;;;1.02;0.93;;;;;;;17.59;44.05;99251.66;5147693;27;20054;-66
2022/09/07 02:44:03;;;;;;;0.93;0.70;;;;;;;17.59;43.92;99251.66;5148230;27;20046;-67
2022/09/07 02:46:28;;;;;;;1.88;1.00;;;;;;;17.58;43.94;99253.47;5148150;27;20023;-66
2022/09/07 02:49:19;;;;;;;1.15;0.80;;;;;;;17.59;44.01;99249.78;5148161;27;20022;-66
2022/09/07 02:51:57;;;;;;;3.17;1.17;;;;;;;17.56;43.86;99246.63;5147784;27;20045;-65
2022/09/07 02:54:22;;;;;;;1.02;0.70;;;;;;;17.56;43.74;99242.13;5148132;27;20023;-67
2022/09/07 02:57:00;;;;;;;0.93;0.77;;;;;;;17.57;43.91;99238.44;5148038;27;20027;-65
2022/09/07 02:59:47;;;;;;;1.05;0.77;;;;;;;17.57;43.79;99235.78;5147935;27;20031;-66
2022/09/07 03:02:36;;;;;;;1.10;0.68;;;;;;;17.54;43.68;99233.44;5147493;27;20019;-65
2022/09/07 03:05:11;;;;;;;1.33;0.95;;;;;;;17.53;43.69;99232.59;5133480;27;20065;-66
2022/09/07 03:07:43;;;;;;;1.67;1.17;;;;;;;17.54;43.76;99236.13;5147422;27;20027;-65
2022/09/07 03:10:12;;;;;;;1.30;0.80;;;;;;;17.56;43.80;99243.97;5147472;27;20078;-66
2022/09/07 03:12:47;;;;;;;1.40;0.98;;;;;;;17.56;43.75;99233.25;5148024;27;20016;-65
2022/09/07 03:15:32;;;;;;;1.10;0.88;;;;;;;17.56;43.80;99247.47;5147789;27;20228;-65
2022/09/07 03:17:58;;;;;;;1.20;0.95;;;;;;;17.55;43.82;99243.13;5146889;27;20035;-65
2022/09/07 03:20:23;;;;;;;1.20;0.75;;;;;;;17.54;43.74;99244.97;5147752;27;20046;-66
2022/09/07 03:22:50;;;;;;;1.90;1.08;;;;;;;17.54;43.97;99250.31;5147625;27;20035;-66
2022/09/07 03:25:17;;;;;;;1.50;0.95;;;;;;;17.55;43.76;99235.13;5147463;27;20051;-65
2022/09/07 03:27:43;;;;;;;1.17;0.70;;;;;;;17.54;43.91;99228.09;5147188;27;20072;-67
2022/09/07 03:30:10;;;;;;;1.85;1.10;;;;;;;17.57;43.69;99234.94;5147800;27;20106;-66
2022/09/07 03:32:37;;;;;;;1.05;0.65;;;;;;;17.56;43.71;99228.75;5147643;27;20037;-65
2022/09/07 03:35:06;;;;;;;1.58;0.95;;;;;;;17.55;43.68;99211.03;5149571;27;20033;-65
2022/09/07 03:37:34;;;;;;;1.80;1.08;;;;;;;17.55;43.61;99211.03;5151463;27;20039;-67
2022/09/07 03:39:59;;;;;;;1.35;1.05;;;;;;;17.54;43.63;99217.41;5151768;27;20042;-66
2022/09/07 03:42:25;;;;;;;3.33;1.48;;;;;;;17.52;43.64;99222.91;5154717;27;20031;-66
2022/09/07 03:44:50;;;;;;;1.42;0.93;;;;;;;17.53;43.50;99223.75;5151429;27;20027;-67
2022/09/07 03:47:16;;;;;;;2.15;1.38;;;;;;;17.53;43.57;99213.06;5151452;27;20019;-66
2022/09/07 03:49:42;;;;;;;1.27;1.00;;;;;;;17.53;43.56;99215.72;5151696;27;20023;-66
2022/09/07 03:52:08;;;;;;;1.75;0.80;;;;;;;17.53;43.56;99216.53;5151114;27;20127;-67
2022/09/07 03:54:34;;;;;;;1.20;0.95;;;;;;;17.53;43.48;99215.72;5151303;27;20019;-65
2022/09/07 03:56:59;;;;;;;1.40;0.80;;;;;;;17.52;43.56;99209.53;5151427;27;20147;-65
2022/09/07 03:59:25;;;;;;;1.38;1.10;;;;;;;17.51;43.55;99209.72;5151278;27;20029;-65
2022/09/07 04:01:50;;;;;;;1.33;0.93;;;;;;;17.52;43.44;99206.03;5152062;27;20050;-66
2022/09/07 04:04:16;;;;;;;1.05;0.90;;;;;;;17.53;43.57;99207.69;5151313;27;20531;-67
2022/09/07 04:06:42;;;;;;;1.70;0.88;;;;;;;17.52;43.56;99204.19;5133122;27;20024;-65
2022/09/07 04:09:11;;;;;;;1.55;1.02;;;;;;;17.52;43.25;99206.84;5151030;27;20015;-65
2022/09/07 04:11:36;;;;;;;1.52;0.90;;;;;;;17.51;43.41;99201.69;5150566;27;20184;-65
2022/09/07 04:14:03;;;;;;;1.05;0.77;;;;;;;17.52;43.55;99209.53;5151062;27;20014;-66
2022/09/07 04:16:28;;;;;;;1.70;0.90;;;;;;;17.51;43.55;99202.50;5151009;27;20019;-65
2022/09/07 04:18:54;;;;;;;2.78;0.93;;;;;;;17.51;43.47;99205.19;5151031;27;20156;-66
2022/09/07 04:21:24;;;;;;;1.13;0.73;;;;;;;17.52;43.38;99200.69;5150512;27;20042;-65
2022/09/07 04:23:50;;;;;;;2.65;1.10;;;;;;;17.52;43.34;99203.34;5150858;27;20025;-67
2022/09/07 04:26:24;;;;;;;1.10;0.80;;;;;;;17.52;43.37;99198.81;5150828;27;20027;-67
2022/09/07 04:28:50;;;;;;;1.38;0.88;;;;;;;17.52;43.30;99200.69;5150838;27;20043;-66
2022/09/07 04:31:17;;;;;;;0.90;0.85;;;;;;;17.54;43.26;99201.34;5150716;27;20185;-67
2022/09/07 04:33:47;;;;;;;1.40;1.05;;;;;;;17.54;43.14;99196.00;5150748;27;20132;-66
2022/09/07 04:36:14;;;;;;;1.40;0.90;;;;;;;17.55;43.00;99197.66;5152294;27;20026;-67
2022/09/07 04:38:39;;;;;;;1.88;1.00;;;;;;;17.57;42.95;99197.47;5171495;27;20027;-68
2022/09/07 04:41:08;;;;;;;1.73;1.05;;;;;;;17.58;42.71;99194.63;5171316;27;20046;-65
2022/09/07 04:43:35;;;;;;;2.05;1.00;;;;;;;17.58;42.68;99191.13;5171267;27;20019;-66
2022/09/07 04:46:06;;;;;;;0.82;0.65;;;;;;;17.61;42.58;99190.78;5171079;27;20015;-67
2022/09/07 04:48:32;;;;;;;1.40;0.88;;;;;;;17.62;42.65;99195.94;5171238;27;20026;-67
2022/09/07 04:51:08;;;;;;;1.65;1.00;;;;;;;17.65;42.45;99190.25;5171135;27;20027;-67
2022/09/07 04:53:35;;;;;;;1.80;1.00;;;;;;;17.68;42.49;99192.56;5171223;27;20025;-65
2022/09/07 04:56:01;;;;;;;1.33;1.10;;;;;;;17.68;42.02;99189.91;5170974;27;20026;-67
2022/09/07 04:58:27;;;;;;;1.38;1.10;;;;;;;17.73;42.02;99184.03;5170960;27;20034;-67
2022/09/07 05:00:52;;;;;;;1.10;1.00;;;;;;;17.75;41.83;99184.69;5161363;27;20068;-66
2022/09/07 05:03:18;;;;;;;2.95;1.70;;;;;;;17.77;41.63;99189.84;5153562;27;20223;-66
2022/09/07 05:05:44;;;;;;;1.27;1.00;;;;;;;17.77;41.61;99190.69;5170468;27;20018;-66
2022/09/07 05:08:10;;;;;;;2.72;1.50;;;;;;;17.78;41.58;99188.84;5133232;27;20058;-67
2022/09/07 05:10:35;;;;;;;3.20;1.50;;;;;;;17.80;41.60;99189.50;5142183;27;20021;-67
2022/09/07 05:13:01;;;;;;;1.70;1.15;;;;;;;17.81;41.63;99191.97;5149875;27;20023;-67
2022/09/07 05:15:29;;;;;;;2.50;1.65;;;;;;;17.83;41.47;99189.16;5149911;27;20019;-66
2022/09/07 05:17:54;;;;;;;2.40;1.85;;;;;;;17.82;41.63;99195.50;5149323;27;20023;-66
2022/09/07 05:20:20;;;;;;;1.90;1.10;;;;;;;17.82;41.79;99190.97;5149179;27;20035;-66
2022/09/07 05:22:46;;;;;;;1.73;1.05;;;;;;;17.83;41.83;99194.50;5149568;27;20023;-68
2022/09/07 05:25:12;;;;;;;1.65;1.05;;;;;;;17.82;41.65;99192.84;5149446;27;20159;-66
2022/09/07 05:27:37;;;;;;;2.45;1.60;;;;;;;17.82;41.87;99193.66;5131532;27;20071;-66
2022/09/07 05:30:03;;;;;;;2.38;1.50;;;;;;;17.84;41.85;99186.28;5149223;27;20033;-65
2022/09/07 05:32:28;;;;;;;10.30;1.25;;;;;;;17.84;42.12;99193.50;5149504;27;20059;-66
2022/09/07 05:34:54;;;;;;;1.95;0.98;;;;;;;17.85;42.12;99189.81;5149475;27;20106;-65
2022/09/07 05:37:19;;;;;;;1.02;0.90;;;;;;;17.85;42.25;99187.94;5149174;27;20035;-66
2022/09/07 05:39:45;;;;;;;1.10;0.77;;;;;;;17.86;42.34;99194.16;5149392;27;20019;-68
2022/09/07 05:42:11;;;;;;;2.03;1.10;;;;;;;17.88;42.32;99176.03;5149199;27;20038;-66
2022/09/07 05:44:36;;;;;;;2.15;1.08;;;;;;;17.89;42.21;99177.72;5149645;27;20105;-66
2022/09/07 05:47:02;;;;;;;1.23;0.88;;;;;;;17.89;42.20;99174.22;5149095;27;20042;-65
2022/09/07 05:49:28;;;;;;;1.52;0.95;;;;;;;17.91;42.15;99174.88;5149361;27;20026;-68
2022/09/07 05:51:54;;;;;;;1.25;0.88;;;;;;;17.89;42.10;99167.00;5148795;27;20025;-64
2022/09/07 05:54:19;;;;;;;3.20;1.17;;;;;;;17.91;42.05;99173.03;5149184;27;20255;-65
2022/09/07 05:56:44;;;;;;;1.30;0.88;;;;;;;17.92;41.98;99185.41;5148246;27;20247;-67
2022/09/07 05:59:10;;;;;;;1.80;1.10;;;;;;;17.92;42.21;99185.41;5148329;27;20288;-66
2022/09/07 06:01:35;;;;;;;1.55;1.20;;;;;;;17.94;42.16;99183.38;5148931;27;20296;-66
2022/09/07 06:04:01;;;;;;;2.33;1.10;;;;;;;17.93;42.04;99184.38;5149003;27;20075;-66
2022/09/07 06:06:27;;;;;;;1.70;1.02;;;;;;;17.93;42.11;99179.03;5148358;27;20019;-66
2022/09/07 06:08:53;;;;;;;1.80;1.20;;;;;;;17.92;42.13;99185.41;5148625;27;20259;-66
2022/09/07 06:11:21;;;;;;;1.45;0.90;;;;;;;17.96;42.07;99188.53;5130729;27;20019;-64
2022/09/07 06:13:47;;;;;;;1.42;1.17;;;;;;;17.98;42.02;99181.22;5147993;27;20023;-67
2022/09/07 06:16:14;;;;;;;2.08;1.20;;;;;;;18.02;41.99;99187.03;5148379;27;20023;-68
2022/09/07 06:18:42;;;;;;;1.80;1.02;;;;;;;18.04;41.84;99185.88;5148765;27;20110;-68
2022/09/07 06:21:13;;;;;;;2.17;1.40;;;;;;;18.06;41.86;99180.31;5148280;27;20117;-65
2022/09/07 06:23:39;;;;;;;;;;;;;;;17.99;41.93;99175.69;5148866;27;20200;-65
2022/09/07 06:26:05;;;;;;;2.00;1.30;;;;;;;18.03;41.89;99183.34;5148109;27;20116;-64
2022/09/07 06:28:36;;;;;;;1.83;1.30;;;;;;;18.04;41.68;99183.19;5148385;27;20228;-65
2022/09/07 06:31:14;;;;;;;2.95;0.90;;;;;;;18.07;41.65;99176.63;5148336;27;20047;-65
2022/09/07 06:33:41;;;;;;;1.55;1.20;;;;;;;18.08;41.61;99176.47;5140760;27;20103;-64
2022/09/07 06:36:13;;;;;;;1.95;1.10;;;;;;;18.09;41.67;99171.94;5148083;27;20022;-67
2022/09/07 06:38:39;;;;;;;1.95;1.05;;;;;;;18.11;41.69;99175.28;5148328;27;20019;-65
2022/09/07 06:41:27;;;;;;;2.53;1.02;;;;;;;18.09;41.64;99166.59;5148036;27;20039;-65
2022/09/07 06:43:54;;;;;;;1.60;0.90;;;;;;;18.10;41.93;99168.25;5147221;27;20101;-65
2022/09/07 06:46:20;;;;;;;1.15;0.73;;;;;;;18.11;41.83;99161.88;5148171;27;20090;-67
2022/09/07 06:48:46;;;;;;;1.00;0.82;;;;;;;18.14;41.89;99172.25;5148004;27;20023;-65
2022/09/07 06:51:14;;;;;;;2.78;0.98;;;;;;;18.15;41.68;99171.22;5147435;27;20045;-66
2022/09/07 06:53:40;;;;;;;2.30;1.05;;;;;;;18.17;41.68;99163.00;5148068;27;20035;-65
2022/09/07 06:56:09;;;;;;;1.92;1.20;;;;;;;18.18;41.61;99175.38;5147863;27;20034;-67
2022/09/07 06:58:35;;;;;;;2.10;1.10;;;;;;;18.18;41.58;99170.03;5148009;27;20029;-67
2022/09/07 07:01:15;;;;;;;1.50;1.10;;;;;;;18.18;41.60;99170.84;5147511;27;20054;-67
2022/09/07 07:03:42;;;;;;;1.20;0.82;;;;;;;18.17;41.60;99169.19;5147839;27;20037;-65
2022/09/07 07:06:09;;;;;;;1.80;1.17;;;;;;;18.18;41.65;99173.53;5147893;27;20019;-66
2022/09/07 07:08:35;;;;;;;2.35;1.20;;;;;;;18.18;41.62;99165.50;5147660;27;20015;-66
2022/09/07 07:11:09;;;;;;;2.42;1.17;;;;;;;18.20;41.59;99168.84;5147972;27;20026;-67
2022/09/07 07:13:35;;;;;;;2.28;1.27;;;;;;;18.21;41.55;99167.00;5147324;27;20091;-65
2022/09/07 07:16:05;;;;;;;1.30;0.80;;;;;;;18.20;41.57;99168.84;5147565;27;20054;-67
2022/09/07 07:18:32;;;;;;;1.48;0.85;;;;;;;18.21;41.75;99158.97;5147882;27;20094;-66
2022/09/07 07:21:00;;;;;;;2.13;1.00;;;;;;;18.23;41.50;99167.66;5147675;27;20088;-64
2022/09/07 07:23:25;;;;;;;0.90;0.65;;;;;;;18.21;41.51;99154.44;5147642;27;20046;-65
2022/09/07 07:25:51;;;;;;;1.50;1.02;;;;;;;18.21;41.50;99162.47;5147562;27;20047;-67
2022/09/07 07:28:16;;;;;;;1.27;0.93;;;;;;;18.21;41.41;99154.44;5147774;27;20132;-66
2022/09/07 07:30:42;;;;;;;1.60;1.00;;;;;;;18.23;41.36;99163.13;5147468;27;20183;-65
2022/09/07 07:33:08;;;;;;;1.85;1.15;;;;;;;18.23;41.50;99168.47;5147808;27;20092;-66
2022/09/07 07:35:34;;;;;;;2.05;1.40;;;;;;;18.22;41.41;99168.66;5147902;27;20097;-65
2022/09/07 07:38:00;;;;;;;2.20;1.42;;;;;;;18.22;41.45;99166.00;5147859;27;20281;-67
2022/09/07 07:40:26;;;;;;;1.48;1.08;;;;;;;18.22;41.38;99166.81;5147978;27;20026;-65
2022/09/07 07:42:51;;;;;;;1.33;0.90;;;;;;;18.23;41.37;99162.31;5147467;27;20027;-67
2022/09/07 07:45:17;;;;;;;2.03;1.40;;;;;;;18.24;41.13;99163.94;5147516;27;20172;-66
2022/09/07 07:47:48;;;;;;;1.35;1.10;;;;;;;18.25;41.02;99149.53;5147512;27;20023;-66
2022/09/07 07:50:14;;;;;;;2.38;1.30;;;;;;;18.26;41.01;99157.41;5147582;27;20048;-67
2022/09/07 07:52:40;;;;;;;1.63;0.95;;;;;;;18.25;41.12;99152.22;5147484;27;20106;-64
2022/09/07 07:55:08;;;;;;;1.45;0.90;;;;;;;18.27;41.10;99155.56;5147531;27;20025;-66
2022/09/07 07:57:34;;;;;;;1.45;0.93;;;;;;;18.27;40.94;99147.50;5147400;27;20023;-66
2022/09/07 07:59:59;;;;;;;1.95;0.90;;;;;;;18.28;41.16;99146.50;5147485;27;20092;-67
2022/09/07 08:02:25;;;;;;;2.35;1.05;;;;;;;18.27;40.96;99139.47;5147248;27;20221;-65
2022/09/07 08:04:51;;;;;;;2.90;0.90;;;;;;;18.29;41.00;99146.34;5129562;27;20039;-67
2022/09/07 08:07:18;;;;;;;2.10;1.10;;;;;;;18.29;41.01;99154.38;5147262;27;20027;-66
2022/09/07 08:09:45;;;;;;;3.30;1.25;;;;;;;18.30;41.03;99141.81;5147483;27;20027;-65
2022/09/07 08:12:15;;;;;;;1.52;0.98;;;;;;;18.31;40.98;99143.47;5146356;27;20125;-65
2022/09/07 08:14:41;;;;;;;1.70;1.00;;;;;;;18.33;40.91;99140.59;5147213;27;20242;-67
2022/09/07 08:17:08;;;;;;;1.13;0.93;;;;;;;18.33;40.71;99137.94;5147060;27;20088;-65
2022/09/07 08:19:34;;;;;;;1.67;1.02;;;;;;;18.32;40.85;99137.09;5147238;27;20031;-65
2022/09/07 08:21:59;;;;;;;1.83;1.10;;;;;;;18.30;41.00;99123.91;5149803;27;20062;-66
2022/09/07 08:24:25;;;;;;;1.35;1.00;;;;;;;18.33;40.83;99130.75;5162891;27;20046;-65
2022/09/07 08:26:51;;;;;;;1.70;0.93;;;;;;;18.33;40.83;99125.38;5171635;27;20027;-65
2022/09/07 08:29:16;;;;;;;3.55;1.17;;;;;;;18.35;40.83;99125.19;5171927;27;20164;-68
2022/09/07 08:31:43;;;;;;;1.88;1.33;;;;;;;18.34;40.72;99128.88;5171515;27;20065;-68
2022/09/07 08:34:08;;;;;;;2.95;1.20;;;;;;;18.35;40.75;99118.00;5162891;27;20118;-65
2022/09/07 08:36:34;;;;;;;2.63;1.25;;;;;;;18.36;40.84;99116.16;5150131;27;20220;-68
2022/09/07 08:39:00;;;;;;;2.15;1.40;;;;;;;18.36;40.76;99110.78;5170236;27;20109;-67
2022/09/07 08:41:47;;;;;;;2.08;1.10;;;;;;;18.38;40.62;99120.28;5171343;27;20019;-67
2022/09/07 08:44:18;;;;;;;2.10;1.35;;;;;;;18.38;40.53;99117.63;5164919;27;20120;-68
2022/09/07 08:46:58;;;;;;;5.03;1.42;;;;;;;18.38;40.56;99117.63;5149793;27;20042;-67
2022/09/07 08:49:45;;;;;;;3.05;1.65;;;;;;;18.40;40.62;99120.13;5151663;27;20031;-65
2022/09/07 08:52:28;;;;;;;2.20;1.27;;;;;;;18.40;40.76;99120.13;5132714;27;20033;-66
2022/09/07 08:55:13;;;;;;;3.38;1.48;;;;;;;18.41;40.99;99114.56;5148544;27;20027;-66
2022/09/07 08:57:44;;;;;;;1.90;1.30;;;;;;;18.44;40.85;99127.63;5153401;27;20039;-67
2022/09/07 09:00:13;;;;;;;2.30;1.33;;;;;;;18.48;40.91;99116.53;5147995;27;20182;-65
2022/09/07 09:02:39;;;;;;;6.95;1.67;;;;;;;18.46;40.86;99114.03;5148097;27;20077;-66
2022/09/07 09:05:19;;;;;;;9.93;1.75;;;;;;;18.40;40.92;99112.91;5148136;27;20027;-65
2022/09/07 09:08:06;;;;;;;2.27;1.33;;;;;;;18.35;40.79;99104.59;5146253;27;20244;-66
2022/09/07 09:10:41;;;;;;;2.85;1.20;;;;;;;18.35;41.20;99106.44;5147656;27;20035;-65
2022/09/07 09:13:10;;;;;;;2.47;1.25;;;;;;;18.35;41.00;99112.66;5147217;27;20023;-68
2022/09/07 09:15:51;;;;;;;3.35;1.30;;;;;;;18.33;40.92;99111.13;5148316;27;20027;-65
2022/09/07 09:18:33;;;;;;;4.57;1.38;;;;;;;18.28;40.94;99117.91;5144368;27;20035;-66
2022/09/07 09:20:59;;;;;;;2.60;1.10;;;;;;;18.24;41.05;99107.69;5148423;27;20241;-68
2022/09/07 09:23:29;;;;;;;3.05;1.42;;;;;;;18.22;40.84;99118.59;5150847;27;20031;-67
2022/09/07 09:26:34;;;;;;;3.88;2.40;;;;;;;18.19;41.12;99118.97;5149733;27;20043;-66
2022/09/07 09:29:23;;;;;;;8.43;2.80;;;;;;;18.17;41.19;99106.78;5140695;27;20066;-66
2022/09/07 09:31:49;;;;;;;6.13;3.40;;;;;;;18.18;41.31;99111.94;5151491;27;20026;-66
2022/09/07 09:34:16;;;;;;;10.57;4.10;;;;;;;18.17;41.54;99118.31;5148844;27;20074;-66
2022/09/07 09:36:46;;;;;;;6.80;2.72;;;;;;;18.19;41.53;99113.59;5148083;27;20192;-64
2022/09/07 09:39:28;;;;;;;9.30;3.53;;;;;;;18.20;41.99;99119.81;5151949;27;20102;-68
2022/09/07 09:41:57;;;;;;;7.97;3.33;;;;;;;18.22;42.40;99113.25;5148503;27;20200;-68
2022/09/07 09:44:37;;;;;;;9.82;3.67;;;;;;;18.25;42.71;99109.38;5149600;27;20019;-66
2022/09/07 09:47:04;;;;;;;8.90;4.57;;;;;;;18.27;42.60;99100.16;5146791;27;20165;-66
2022/09/07 09:49:36;;;;;;;10.15;4.95;;;;;;;18.30;44.01;99105.16;5149692;27;20084;-68
2022/09/07 09:52:04;;;;;;;8.90;4.63;;;;;;;18.35;43.88;99111.78;5131905;27;20237;-70
2022/09/07 09:54:55;;;;;;;8.70;5.07;;;;;;;18.36;44.70;99108.09;5150770;27;20045;-64
2022/09/07 09:57:52;;;;;;;7.35;3.55;;;;;;;18.37;44.21;99101.75;5147098;27;20019;-64
2022/09/07 10:00:20;;;;;;;8.23;3.67;;;;;;;18.38;44.17;99100.72;5150467;27;20034;-68
2022/09/07 10:03:13;;;;;;;7.63;4.00;;;;;;;18.39;44.67;99107.75;5153191;27;20035;-65
2022/09/07 10:05:41;;;;;;;8.90;2.85;;;;;;;18.38;44.25;99106.91;5140922;27;20047;-65
2022/09/07 10:08:35;;;;;;;9.45;2.60;;;;;;;18.36;44.55;99100.06;5142334;27;20146;-66
2022/09/07 10:11:07;;;;;;;9.95;3.95;;;;;;;18.38;45.51;99111.44;5146538;27;20062;-69
2022/09/07 10:13:34;;;;;;;;;;;;;;;18.30;45.69;99105.16;5151938;27;20221;-69
2022/09/07 10:16:04;;;;;;;12.10;4.00;;;;;;;18.34;46.15;99099.41;5149912;27;19911;-65
2022/09/07 10:18:59;;;;;;;7.20;3.20;;;;;;;18.38;45.78;99108.75;5145841;27;20039;-65
2022/09/07 10:24:26;;;;;;;11.23;3.95;;;;;;;18.39;45.97;99102.38;5141087;27;20196;-66
2022/09/07 10:26:52;;;;;;;14.63;4.10;;;;;;;18.37;45.82;99102.59;5143872;27;20039;-63
2022/09/07 10:29:35;;;;;;;12.98;4.68;;;;;;;18.39;46.00;99103.22;5158161;27;20050;-66
2022/09/07 10:32:06;;;;;;;9.40;3.47;;;;;;;18.40;45.84;99104.06;5145523;27;20034;-65
2022/09/07 10:34:43;;;;;;;;;;;;;;;18.32;46.12;99106.78;5146358;27;20027;-64
2022/09/07 10:37:13;;;;;;;7.85;3.15;;;;;;;18.33;46.03;99105.78;5148753;27;19908;-67
2022/09/07 10:40:11;;;;;;;14.18;4.10;;;;;;;18.35;46.31;99107.28;5153790;27;20221;-67
2022/09/07 10:42:44;;;;;;;6.78;2.80;;;;;;;18.36;46.14;99097.38;5150995;27;20062;-64
2022/09/07 10:45:23;;;;;;;12.95;4.15;;;;;;;18.35;46.36;99095.72;5143641;27;20111;-65
2022/09/07 10:48:25;;;;;;;7.88;4.40;;;;;;;18.35;46.28;99098.41;5148312;27;20031;-66
2022/09/07 10:50:57;;;;;;;10.80;3.55;;;;;;;18.35;46.18;99106.44;5145219;27;20151;-64
2022/09/07 10:53:40;;;;;;;13.20;4.03;;;;;;;18.34;46.41;99104.78;5146715;27;20233;-63
2022/09/07 10:59:34;;;;;;;7.70;2.25;;;;;;;18.35;45.69;99106.44;5156769;27;20054;-67
2022/09/07 11:02:27;;;;;;;10.55;3.17;;;;;;;18.28;46.12;99096.47;5157531;27;20054;-68
2022/09/07 11:05:10;;;;;;;7.78;2.65;;;;;;;18.28;45.64;99107.19;5149228;27;20170;-69
2022/09/07 11:07:35;;;;;;;7.78;2.28;;;;;;;18.28;45.17;99107.19;5147499;27;20031;-66
2022/09/07 11:10:36;;;;;;;15.00;2.85;;;;;;;18.37;45.68;99110.63;5147042;27;20098;-65
2022/09/07 11:13:05;;;;;;;7.75;2.95;;;;;;;18.43;45.87;99101.84;5143029;27;20031;-67
2022/09/07 11:15:36;;;;;;;9.35;2.22;;;;;;;18.51;44.91;99108.97;5129888;27;20081;-67
2022/09/07 11:18:07;;;;;;;;;;;;;;;18.51;45.22;99116.19;5135106;27;20046;-65
2022/09/07 11:20:49;;;;;;;4.47;1.65;;;;;;;18.56;44.14;99108.41;5147117;27;19914;-66
2022/09/07 11:23:22;;;;;;;8.48;2.78;;;;;;;18.63;44.50;99113.84;5135426;27;20084;-63
2022/09/07 11:26:19;;;;;;;8.80;2.20;;;;;;;18.67;44.24;99109.81;5144356;27;20147;-64
2022/09/07 11:28:53;;;;;;;9.13;2.08;;;;;;;18.69;44.75;99110.47;5142117;27;20098;-66
2022/09/07 11:31:29;;;;;;;10.05;3.15;;;;;;;18.73;45.11;99106.41;5146143;27;20023;-67
2022/09/07 11:34:01;;;;;;;11.10;3.03;;;;;;;18.75;45.09;99107.88;5150514;27;20026;-66
2022/09/07 11:36:33;;;;;;;11.75;2.38;;;;;;;18.77;44.65;99113.03;5144709;27;20240;-67
2022/09/07 11:39:28;;;;;;;11.10;3.85;;;;;;;18.76;44.08;99106.84;5147363;27;20031;-62
2022/09/07 11:42:18;;;;;;;5.00;1.90;;;;;;;18.75;43.80;99102.50;5146737;27;20410;-64
2022/09/07 11:45:00;;;;;;;5.25;1.63;;;;;;;18.74;43.56;99098.16;5146402;27;20035;-64
2022/09/07 11:47:38;;;;;;;6.28;2.35;;;;;;;18.75;43.96;99091.78;5147302;27;20027;-65
2022/09/07 11:50:04;;;;;;;4.30;1.73;;;;;;;18.74;43.80;99078.59;5147465;27;20023;-67
2022/09/07 11:52:36;;;;;;;6.15;2.17;;;;;;;18.76;43.51;99090.78;5147394;27;20088;-67
2022/09/07 11:55:08;;;;;;;7.55;2.08;;;;;;;18.75;43.33;99096.31;5147604;27;20027;-66
2022/09/07 11:57:43;;;;;;;6.90;2.40;;;;;;;18.76;43.44;99089.94;5151363;27;20091;-66
2022/09/07 12:00:36;;;;;;;6.65;1.75;;;;;;;18.74;43.36;99083.94;5151353;27;20019;-67